Time,TemperatureF,DewpointF,PressureIn,WindDirection,WindDirectionDegrees,WindSpeedMPH,WindSpeedGustMPH,Humidity,HourlyPrecipIn,Conditions,Clouds,dailyrainin,SolarRadiationWatts/m^2,SoftwareType,DateUTC
2013-03-20 00:00:00,28.8,21.9,30.19,WNW,300,6.0,7.0,75,0.00,,,0.00,0,Wunderground v.1.15,2013-03-20 05:00:00,
2013-03-20 00:10:00,28.9,21.3,30.19,NW,319,9.0,10.0,73,0.00,,,0.00,0,Wunderground v.1.15,2013-03-20 05:10:00,
2013-03-20 00:15:00,29.1,21.5,30.19,NW,321,9.0,10.0,73,0.00,,,0.00,0,Wunderground v.1.15,2013-03-20 05:15:00,
2013-03-20 00:20:00,29.4,21.8,30.20,NW,322,9.0,9.0,73,0.00,,,0.00,0,Wunderground v.1.15,2013-03-20 05:20:00,
2013-03-20 00:25:00,29.4,22.1,30.19,NW,324,8.0,9.0,74,0.00,,,0.00,0,Wunderground v.1.15,2013-03-20 05:25:00,
2013-03-20 00:30:00,29.4,22.1,30.20,NNW,328,8.0,10.0,74,0.00,,,0.00,0,Wunderground v.1.15,2013-03-20 05:30:00,
2013-03-20 00:40:00,29.1,22.2,30.19,NNW,335,6.0,6.0,75,0.00,,,0.00,0,Wunderground v.1.15,2013-03-20 05:40:00,
2013-03-20 00:45:00,29.0,22.1,30.19,NW,325,6.0,10.0,75,0.00,,,0.00,0,Wunderground v.1.15,2013-03-20 05:45:00,
2013-03-20 00:50:00,28.8,22.2,30.19,NNW,328,6.0,6.0,76,0.00,,,0.00,0,Wunderground v.1.15,2013-03-20 05:50:00,
2013-03-20 00:55:00,28.8,22.5,30.19,NNW,329,6.0,7.0,77,0.00,,,0.00,0,Wunderground v.1.15,2013-03-20 05:55:00,
2013-03-20 01:00:00,28.7,22.7,30.19,NNW,329,6.0,6.0,78,0.00,,,0.00,0,Wunderground v.1.15,2013-03-20 06:00:00,
2013-03-20 01:10:00,28.7,22.7,30.19,NW,322,7.0,10.0,78,0.00,,,0.00,0,Wunderground v.1.15,2013-03-20 06:10:00,
2013-03-20 01:15:00,28.7,22.7,30.19,NW,321,8.0,10.0,78,0.00,,,0.00,0,Wunderground v.1.15,2013-03-20 06:15:00,
2013-03-20 01:25:00,28.3,22.6,30.19,NW,315,7.0,8.0,79,0.00,,,0.00,0,Wunderground v.1.15,2013-03-20 06:25:00,
2013-03-20 01:30:00,28.0,22.6,30.19,NW,315,7.0,7.0,80,0.00,,,0.00,0,Wunderground v.1.15,2013-03-20 06:30:00,
2013-03-20 01:35:00,27.6,22.5,30.19,NW,314,6.0,7.0,81,0.00,,,0.00,0,Wunderground v.1.15,2013-03-20 06:35:00,
2013-03-20 01:40:00,27.2,22.1,30.19,NW,309,5.0,8.0,81,0.00,,,0.00,0,Wunderground v.1.15,2013-03-20 06:40:00,
2013-03-20 01:45:00,27.1,22.0,30.19,NW,304,7.0,11.0,81,0.00,,,0.00,0,Wunderground v.1.15,2013-03-20 06:45:00,
2013-03-20 01:55:00,27.1,21.7,30.19,NW,305,10.0,10.0,80,0.00,,,0.00,0,Wunderground v.1.15,2013-03-20 06:55:00,
2013-03-20 02:00:00,27.1,21.7,30.19,NW,304,10.0,10.0,80,0.00,,,0.00,0,Wunderground v.1.15,2013-03-20 07:00:00,
2013-03-20 02:05:00,27.0,21.9,30.19,NW,304,9.0,10.0,81,0.00,,,0.00,0,Wunderground v.1.15,2013-03-20 07:05:00,
2013-03-20 02:10:00,26.8,21.8,30.19,WNW,298,9.0,9.0,81,0.00,,,0.00,0,Wunderground v.1.15,2013-03-20 07:10:00,
2013-03-20 02:15:00,26.6,21.6,30.19,WNW,298,9.0,11.0,81,0.00,,,0.00,0,Wunderground v.1.15,2013-03-20 07:15:00,
2013-03-20 02:20:00,26.7,21.7,30.19,NW,308,11.0,14.0,81,0.00,,,0.00,0,Wunderground v.1.15,2013-03-20 07:20:00,
2013-03-20 02:30:00,27.0,21.7,30.19,WNW,303,13.0,13.0,80,0.00,,,0.00,0,Wunderground v.1.15,2013-03-20 07:30:00,
2013-03-20 02:35:00,26.9,21.6,30.19,NW,304,12.0,13.0,80,0.00,,,0.00,0,Wunderground v.1.15,2013-03-20 07:35:00,
2013-03-20 02:40:00,26.7,21.7,30.19,WNW,303,12.0,12.0,81,0.00,,,0.00,0,Wunderground v.1.15,2013-03-20 07:40:00,
2013-03-20 02:45:00,26.4,21.4,30.19,WNW,301,11.0,12.0,81,0.00,,,0.00,0,Wunderground v.1.15,2013-03-20 07:45:00,
2013-03-20 02:50:00,26.2,21.5,30.19,NW,304,11.0,13.0,82,0.00,,,0.00,0,Wunderground v.1.15,2013-03-20 07:50:00,
2013-03-20 03:00:00,26.2,21.7,30.19,NW,307,13.0,13.0,83,0.00,,,0.00,0,Wunderground v.1.15,2013-03-20 08:00:00,
2013-03-20 03:05:00,26.5,22.0,30.19,NW,309,13.0,16.0,83,0.00,,,0.00,0,Wunderground v.1.15,2013-03-20 08:05:00,
2013-03-20 03:10:00,26.8,22.0,30.20,NW,314,15.0,15.0,82,0.00,,,0.00,0,Wunderground v.1.15,2013-03-20 08:10:00,
2013-03-20 03:15:00,27.0,22.2,30.20,NW,324,16.0,18.0,82,0.00,,,0.00,0,Wunderground v.1.15,2013-03-20 08:15:00,
2013-03-20 03:20:00,27.1,22.3,30.19,NW,319,17.0,17.0,82,0.00,,,0.00,0,Wunderground v.1.15,2013-03-20 08:20:00,
2013-03-20 03:25:00,27.1,22.3,30.20,NW,320,18.0,18.0,82,0.00,,,0.00,0,Wunderground v.1.15,2013-03-20 08:25:00,
2013-03-20 03:35:00,26.9,21.6,30.20,NW,307,21.0,27.0,80,0.00,,,0.00,0,Wunderground v.1.15,2013-03-20 08:35:00,
2013-03-20 03:40:00,26.6,20.7,30.19,NW,313,22.0,24.0,78,0.00,,,0.00,0,Wunderground v.1.15,2013-03-20 08:40:00,
2013-03-20 03:45:00,26.3,19.8,30.19,NW,319,23.0,24.0,76,0.00,,,0.00,0,Wunderground v.1.15,2013-03-20 08:45:00,
2013-03-20 03:50:00,25.8,18.3,30.20,NW,308,24.0,24.0,73,0.00,,,0.00,0,Wunderground v.1.15,2013-03-20 08:50:00,
2013-03-20 03:55:00,25.2,17.4,30.19,NW,304,25.0,27.0,72,0.00,,,0.00,0,Wunderground v.1.15,2013-03-20 08:55:00,
2013-03-20 04:05:00,24.4,17.9,30.20,WNW,302,24.0,27.0,76,0.00,,,0.00,0,Wunderground v.1.15,2013-03-20 09:05:00,
2013-03-20 04:10:00,24.0,16.6,30.20,WNW,302,24.0,30.0,73,0.00,,,0.00,0,Wunderground v.1.15,2013-03-20 09:10:00,
2013-03-20 04:15:00,23.5,15.8,30.21,NW,311,24.0,30.0,72,0.00,,,0.00,0,Wunderground v.1.15,2013-03-20 09:15:00,
2013-03-20 04:20:00,23.0,15.6,30.21,NW,315,24.0,24.0,73,0.00,,,0.00,0,Wunderground v.1.15,2013-03-20 09:20:00,
2013-03-20 04:25:00,22.6,14.3,30.21,NW,315,23.0,25.0,70,0.00,,,0.00,0,Wunderground v.1.15,2013-03-20 09:25:00,
2013-03-20 04:30:00,22.2,14.2,30.21,NW,313,22.0,23.0,71,0.00,,,0.00,0,Wunderground v.1.15,2013-03-20 09:30:00,
2013-03-20 04:40:00,21.5,13.9,30.22,NW,309,22.0,22.0,72,0.00,,,0.00,0,Wunderground v.1.15,2013-03-20 09:40:00,
2013-03-20 04:45:00,21.2,13.6,30.23,WNW,301,22.0,22.0,72,0.00,,,0.00,0,Wunderground v.1.15,2013-03-20 09:45:00,
2013-03-20 04:50:00,20.9,13.0,30.22,NW,314,22.0,22.0,71,0.00,,,0.00,0,Wunderground v.1.15,2013-03-20 09:50:00,
2013-03-20 04:55:00,20.7,12.8,30.23,NW,309,21.0,22.0,71,0.00,,,0.00,0,Wunderground v.1.15,2013-03-20 09:55:00,
2013-03-20 05:00:00,20.5,12.3,30.23,NW,307,21.0,25.0,70,0.00,,,0.00,0,Wunderground v.1.15,2013-03-20 10:00:00,
2013-03-20 05:05:00,20.3,12.4,30.23,NW,308,20.0,25.0,71,0.00,,,0.00,0,Wunderground v.1.15,2013-03-20 10:05:00,
2013-03-20 05:10:00,20.0,12.4,30.23,NW,311,20.0,20.0,72,0.00,,,0.00,0,Wunderground v.1.15,2013-03-20 10:10:00,
2013-03-20 05:15:00,19.8,12.5,30.23,NW,310,20.0,20.0,73,0.00,,,0.00,0,Wunderground v.1.15,2013-03-20 10:15:00,
2013-03-20 05:20:00,19.7,12.4,30.23,WNW,291,19.0,20.0,73,0.00,,,0.00,0,Wunderground v.1.15,2013-03-20 10:20:00,
2013-03-20 05:25:00,19.5,12.6,30.23,WNW,301,18.0,20.0,74,0.00,,,0.00,0,Wunderground v.1.15,2013-03-20 10:25:00,
2013-03-20 05:30:00,19.3,12.1,30.23,NW,314,19.0,25.0,73,0.00,,,0.00,0,Wunderground v.1.15,2013-03-20 10:30:00,
2013-03-20 05:35:00,19.1,11.9,30.24,NW,308,21.0,25.0,73,0.00,,,0.00,0,Wunderground v.1.15,2013-03-20 10:35:00,
2013-03-20 05:40:00,19.0,11.5,30.23,NW,306,22.0,22.0,72,0.00,,,0.00,0,Wunderground v.1.15,2013-03-20 10:40:00,
2013-03-20 05:45:00,19.0,12.1,30.23,WNW,303,21.0,22.0,74,0.00,,,0.00,0,Wunderground v.1.15,2013-03-20 10:45:00,
2013-03-20 05:50:00,18.9,11.0,30.24,NW,313,21.0,23.0,71,0.00,,,0.00,0,Wunderground v.1.15,2013-03-20 10:50:00,
2013-03-20 05:55:00,18.7,11.2,30.24,NW,322,22.0,23.0,72,0.00,,,0.00,0,Wunderground v.1.15,2013-03-20 10:55:00,
2013-03-20 06:00:00,18.6,12.0,30.24,NW,317,20.0,20.0,75,0.00,,,0.00,0,Wunderground v.1.15,2013-03-20 11:00:00,
2013-03-20 06:05:00,18.5,11.6,30.24,NW,325,19.0,20.0,74,0.00,,,0.00,0,Wunderground v.1.15,2013-03-20 11:05:00,
2013-03-20 06:15:00,18.4,11.8,30.25,NW,311,19.0,20.0,75,0.00,,,0.00,0,Wunderground v.1.15,2013-03-20 11:15:00,
2013-03-20 06:20:00,18.3,12.0,30.25,NW,315,20.0,21.0,76,0.00,,,0.00,0,Wunderground v.1.15,2013-03-20 11:20:00,
2013-03-20 06:25:00,18.2,11.3,30.25,WNW,300,23.0,23.0,74,0.00,,,0.00,0,Wunderground v.1.15,2013-03-20 11:25:00,
2013-03-20 06:30:00,18.0,11.1,30.25,NW,308,24.0,24.0,74,0.00,,,0.00,0,Wunderground v.1.15,2013-03-20 11:30:00,
2013-03-20 06:35:00,18.0,11.4,30.26,WNW,302,21.0,24.0,75,0.00,,,0.00,0,Wunderground v.1.15,2013-03-20 11:35:00,
2013-03-20 06:40:00,17.8,11.2,30.26,NW,310,21.0,21.0,75,0.00,,,0.00,0,Wunderground v.1.15,2013-03-20 11:40:00,
2013-03-20 06:45:00,17.7,11.1,30.26,NW,311,21.0,21.0,75,0.00,,,0.00,0,Wunderground v.1.15,2013-03-20 11:45:00,
2013-03-20 06:50:00,17.6,11.0,30.26,NW,313,21.0,26.0,75,0.00,,,0.00,0,Wunderground v.1.15,2013-03-20 11:50:00,
2013-03-20 06:55:00,17.5,10.9,30.26,NW,309,23.0,26.0,75,0.00,,,0.00,0,Wunderground v.1.15,2013-03-20 11:55:00,
2013-03-20 07:00:00,17.3,10.4,30.26,NW,324,23.0,27.0,74,0.00,,,0.00,0,Wunderground v.1.15,2013-03-20 12:00:00,
2013-03-20 07:10:00,17.2,10.9,30.27,NW,312,21.0,21.0,76,0.00,,,0.00,9,Wunderground v.1.15,2013-03-20 12:10:00,
2013-03-20 07:15:00,17.2,10.6,30.26,NW,312,22.0,22.0,75,0.00,,,0.00,12,Wunderground v.1.15,2013-03-20 12:15:00,
2013-03-20 07:25:00,17.2,10.9,30.27,NW,325,22.0,26.0,76,0.00,,,0.00,19,Wunderground v.1.15,2013-03-20 12:25:00,
2013-03-20 07:30:00,17.3,11.0,30.27,NW,313,22.0,22.0,76,0.00,,,0.00,28,Wunderground v.1.15,2013-03-20 12:30:00,
2013-03-20 07:35:00,17.3,10.7,30.27,NW,313,20.0,22.0,75,0.00,,,0.00,39,Wunderground v.1.15,2013-03-20 12:35:00,
2013-03-20 07:40:00,17.3,11.0,30.28,NW,306,19.0,19.0,76,0.00,,,0.00,49,Wunderground v.1.15,2013-03-20 12:40:00,
2013-03-20 07:45:00,17.4,11.1,30.27,NW,313,20.0,23.0,76,0.00,,,0.00,63,Wunderground v.1.15,2013-03-20 12:45:00,
2013-03-20 07:55:00,17.7,11.7,30.27,NW,321,22.0,24.0,77,0.00,,,0.00,97,Wunderground v.1.15,2013-03-20 12:55:00,
2013-03-20 08:00:00,17.7,11.1,30.27,NW,312,21.0,22.0,75,0.00,,,0.00,114,Wunderground v.1.15,2013-03-20 13:00:00,
2013-03-20 08:05:00,17.9,10.7,30.27,NW,317,22.0,22.0,73,0.00,,,0.00,100,Wunderground v.1.15,2013-03-20 13:05:00,
2013-03-20 08:10:00,17.9,10.1,30.27,NW,310,25.0,25.0,71,0.00,,,0.00,156,Wunderground v.1.15,2013-03-20 13:10:00,
2013-03-20 08:15:00,18.1,10.6,30.28,NW,316,25.0,25.0,72,0.00,,,0.00,178,Wunderground v.1.15,2013-03-20 13:15:00,
2013-03-20 08:20:00,18.5,11.0,30.27,NW,304,23.0,24.0,72,0.00,,,0.00,193,Wunderground v.1.15,2013-03-20 13:20:00,
2013-03-20 08:30:00,18.2,8.7,30.27,WNW,293,27.0,27.0,66,0.00,,,0.00,230,Wunderground v.1.15,2013-03-20 13:30:00,
2013-03-20 08:35:00,18.2,8.4,30.27,NW,313,29.0,29.0,65,0.00,,,0.00,250,Wunderground v.1.15,2013-03-20 13:35:00,
2013-03-20 08:40:00,18.4,8.9,30.28,NW,319,29.0,33.0,66,0.00,,,0.00,267,Wunderground v.1.15,2013-03-20 13:40:00,
2013-03-20 08:45:00,18.6,10.1,30.28,NW,307,26.0,33.0,69,0.00,,,0.00,287,Wunderground v.1.15,2013-03-20 13:45:00,
2013-03-20 08:50:00,18.5,9.7,30.28,NW,314,25.0,25.0,68,0.00,,,0.00,301,Wunderground v.1.15,2013-03-20 13:50:00,
2013-03-20 09:00:00,18.9,9.4,30.27,NW,315,27.0,27.0,66,0.00,,,0.00,338,Wunderground v.1.15,2013-03-20 14:00:00,
2013-03-20 09:05:00,19.1,9.3,30.27,NW,313,27.0,29.0,65,0.00,,,0.00,355,Wunderground v.1.15,2013-03-20 14:05:00,
2013-03-20 09:10:00,19.3,9.4,30.27,WNW,290,26.0,26.0,65,0.00,,,0.00,378,Wunderground v.1.15,2013-03-20 14:10:00,
2013-03-20 09:15:00,19.6,9.4,30.28,NW,312,25.0,28.0,64,0.00,,,0.00,387,Wunderground v.1.15,2013-03-20 14:15:00,
2013-03-20 09:20:00,19.7,8.8,30.27,WNW,302,26.0,32.0,62,0.00,,,0.00,406,Wunderground v.1.15,2013-03-20 14:20:00,
2013-03-20 09:25:00,19.8,8.9,30.27,NW,304,26.0,32.0,62,0.00,,,0.00,422,Wunderground v.1.15,2013-03-20 14:25:00,
2013-03-20 09:35:00,20.3,9.0,30.27,WNW,302,24.0,30.0,61,0.00,,,0.00,452,Wunderground v.1.15,2013-03-20 14:35:00,
2013-03-20 09:40:00,20.3,9.0,30.28,WNW,293,25.0,25.0,61,0.00,,,0.00,471,Wunderground v.1.15,2013-03-20 14:40:00,
2013-03-20 09:45:00,20.3,7.9,30.27,WNW,292,26.0,26.0,58,0.00,,,0.00,483,Wunderground v.1.15,2013-03-20 14:45:00,
2013-03-20 09:50:00,20.8,8.3,30.27,NW,308,24.0,25.0,58,0.00,,,0.00,499,Wunderground v.1.15,2013-03-20 14:50:00,
2013-03-20 09:55:00,21.0,8.1,30.27,WNW,300,24.0,25.0,57,0.00,,,0.00,517,Wunderground v.1.15,2013-03-20 14:55:00,
2013-03-20 10:05:00,21.1,9.7,30.27,WNW,298,22.0,25.0,61,0.00,,,0.00,541,Wunderground v.1.15,2013-03-20 15:05:00,
2013-03-20 10:10:00,21.3,9.6,30.27,WNW,301,22.0,24.0,60,0.00,,,0.00,563,Wunderground v.1.15,2013-03-20 15:10:00,
2013-03-20 10:15:00,21.8,9.3,30.26,WNW,300,22.0,32.0,58,0.00,,,0.00,573,Wunderground v.1.15,2013-03-20 15:15:00,
2013-03-20 10:20:00,21.6,8.3,30.27,NW,311,23.0,23.0,56,0.00,,,0.00,585,Wunderground v.1.15,2013-03-20 15:20:00,
2013-03-20 10:25:00,21.8,8.5,30.27,WNW,300,24.0,24.0,56,0.00,,,0.00,603,Wunderground v.1.15,2013-03-20 15:25:00,
2013-03-20 10:30:00,21.8,7.3,30.27,WNW,300,25.0,25.0,53,0.00,,,0.00,613,Wunderground v.1.15,2013-03-20 15:30:00,
2013-03-20 10:40:00,22.2,8.1,30.26,WNW,294,24.0,24.0,54,0.00,,,0.00,635,Wunderground v.1.15,2013-03-20 15:40:00,
2013-03-20 10:45:00,22.4,7.8,30.27,WNW,290,23.0,25.0,53,0.00,,,0.00,650,Wunderground v.1.15,2013-03-20 15:45:00,
2013-03-20 10:50:00,22.3,7.7,30.27,NW,304,24.0,30.0,53,0.00,,,0.00,663,Wunderground v.1.15,2013-03-20 15:50:00,
2013-03-20 10:55:00,22.6,7.2,30.27,WNW,298,25.0,30.0,51,0.00,,,0.00,677,Wunderground v.1.15,2013-03-20 15:55:00,
2013-03-20 11:00:00,22.5,6.6,30.27,WNW,298,24.0,25.0,50,0.00,,,0.00,687,Wunderground v.1.15,2013-03-20 16:00:00,
2013-03-20 11:10:00,22.7,7.3,30.27,NW,309,23.0,27.0,51,0.00,,,0.00,708,Wunderground v.1.15,2013-03-20 16:10:00,
2013-03-20 11:15:00,23.0,8.4,30.27,WNW,302,24.0,27.0,53,0.00,,,0.00,717,Wunderground v.1.15,2013-03-20 16:15:00,
2013-03-20 11:20:00,23.3,9.1,30.27,WNW,296,24.0,24.0,54,0.00,,,0.00,726,Wunderground v.1.15,2013-03-20 16:20:00,
2013-03-20 11:30:00,23.3,8.2,30.27,WNW,297,22.0,22.0,52,0.00,,,0.00,744,Wunderground v.1.15,2013-03-20 16:30:00,
2013-03-20 11:35:00,23.5,8.9,30.27,NW,313,21.0,22.0,53,0.00,,,0.00,751,Wunderground v.1.15,2013-03-20 16:35:00,
2013-03-20 11:40:00,23.5,8.9,30.27,NW,310,22.0,22.0,53,0.00,,,0.00,765,Wunderground v.1.15,2013-03-20 16:40:00,
2013-03-20 11:45:00,23.5,7.6,30.27,NW,314,22.0,22.0,50,0.00,,,0.00,770,Wunderground v.1.15,2013-03-20 16:45:00,
2013-03-20 11:50:00,23.8,9.1,30.27,NW,318,21.0,21.0,53,0.00,,,0.00,775,Wunderground v.1.15,2013-03-20 16:50:00,
2013-03-20 12:00:00,24.1,8.1,30.26,NW,304,21.0,23.0,50,0.00,,,0.00,793,Wunderground v.1.15,2013-03-20 17:00:00,
2013-03-20 12:05:00,24.2,8.2,30.26,NW,315,20.0,24.0,50,0.00,,,0.00,795,Wunderground v.1.15,2013-03-20 17:05:00,
2013-03-20 12:10:00,24.0,8.0,30.25,NW,305,22.0,27.0,50,0.00,,,0.00,802,Wunderground v.1.15,2013-03-20 17:10:00,
2013-03-20 12:20:00,24.4,9.3,30.25,WNW,298,20.0,20.0,52,0.00,,,0.00,809,Wunderground v.1.15,2013-03-20 17:20:00,
2013-03-20 12:25:00,24.8,8.8,30.26,WNW,296,20.0,20.0,50,0.00,,,0.00,816,Wunderground v.1.15,2013-03-20 17:25:00,
2013-03-20 12:30:00,25.0,9.0,30.25,WNW,284,21.0,26.0,50,0.00,,,0.00,817,Wunderground v.1.15,2013-03-20 17:30:00,
2013-03-20 12:35:00,24.7,8.7,30.25,WNW,292,21.0,26.0,50,0.00,,,0.00,824,Wunderground v.1.15,2013-03-20 17:35:00,
2013-03-20 12:40:00,25.2,10.0,30.25,West,275,20.0,20.0,52,0.00,,,0.00,824,Wunderground v.1.15,2013-03-20 17:40:00,
2013-03-20 12:50:00,25.1,9.0,30.25,WNW,300,22.0,22.0,50,0.00,,,0.00,830,Wunderground v.1.15,2013-03-20 17:50:00,
2013-03-20 12:55:00,25.6,10.0,30.24,WNW,292,21.0,22.0,51,0.00,,,0.00,830,Wunderground v.1.15,2013-03-20 17:55:00,
2013-03-20 13:00:00,25.5,8.5,30.24,WNW,301,21.0,25.0,48,0.00,,,0.00,831,Wunderground v.1.15,2013-03-20 18:00:00,
2013-03-20 13:05:00,25.5,9.0,30.24,WNW,301,22.0,25.0,49,0.00,,,0.00,835,Wunderground v.1.15,2013-03-20 18:05:00,
2013-03-20 13:10:00,26.1,10.0,30.24,NW,304,22.0,22.0,50,0.00,,,0.00,837,Wunderground v.1.15,2013-03-20 18:10:00,
2013-03-20 13:15:00,26.3,9.7,30.24,WNW,286,20.0,22.0,49,0.00,,,0.00,831,Wunderground v.1.15,2013-03-20 18:15:00,
2013-03-20 13:25:00,26.3,9.7,30.23,WNW,300,22.0,22.0,49,0.00,,,0.00,828,Wunderground v.1.15,2013-03-20 18:25:00,
2013-03-20 13:30:00,26.8,11.1,30.23,NW,306,23.0,25.0,51,0.00,,,0.00,831,Wunderground v.1.15,2013-03-20 18:30:00,
2013-03-20 13:35:00,26.8,9.7,30.23,WNW,303,24.0,26.0,48,0.00,,,0.00,828,Wunderground v.1.15,2013-03-20 18:35:00,
2013-03-20 13:40:00,26.9,9.3,30.22,WNW,287,22.0,22.0,47,0.00,,,0.00,833,Wunderground v.1.15,2013-03-20 18:40:00,
2013-03-20 13:45:00,27.2,8.1,30.22,NW,309,20.0,22.0,44,0.00,,,0.00,826,Wunderground v.1.15,2013-03-20 18:45:00,
2013-03-20 13:55:00,27.6,10.4,30.21,NW,308,20.0,26.0,48,0.00,,,0.00,821,Wunderground v.1.15,2013-03-20 18:55:00,
2013-03-20 14:00:00,27.3,9.7,30.21,WNW,302,22.0,23.0,47,0.00,,,0.00,817,Wunderground v.1.15,2013-03-20 19:00:00,
2013-03-20 14:05:00,27.5,10.4,30.21,NW,309,22.0,23.0,48,0.00,,,0.00,814,Wunderground v.1.15,2013-03-20 19:05:00,
2013-03-20 14:10:00,27.8,10.6,30.21,WNW,301,22.0,23.0,48,0.00,,,0.00,814,Wunderground v.1.15,2013-03-20 19:10:00,
2013-03-20 14:15:00,27.7,9.6,30.21,WNW,296,22.0,23.0,46,0.00,,,0.00,817,Wunderground v.1.15,2013-03-20 19:15:00,
2013-03-20 14:20:00,27.9,11.2,30.21,WNW,300,21.0,21.0,49,0.00,,,0.00,791,Wunderground v.1.15,2013-03-20 19:20:00,
2013-03-20 14:30:00,28.3,10.1,30.20,NW,309,22.0,22.0,46,0.00,,,0.00,142,Wunderground v.1.15,2013-03-20 19:30:00,
2013-03-20 14:35:00,28.3,11.6,30.20,WNW,298,21.0,22.0,49,0.00,,,0.00,803,Wunderground v.1.15,2013-03-20 19:35:00,
2013-03-20 14:40:00,28.6,10.9,30.19,WNW,289,21.0,22.0,47,0.00,,,0.00,879,Wunderground v.1.15,2013-03-20 19:40:00,
2013-03-20 14:45:00,28.7,11.5,30.20,NW,320,22.0,22.0,48,0.00,,,0.00,772,Wunderground v.1.15,2013-03-20 19:45:00,
2013-03-20 14:50:00,28.2,9.5,30.20,NW,323,23.0,23.0,45,0.00,,,0.00,803,Wunderground v.1.15,2013-03-20 19:50:00,
2013-03-20 14:55:00,28.0,10.3,30.20,WNW,302,21.0,23.0,47,0.00,,,0.00,190,Wunderground v.1.15,2013-03-20 19:55:00,
2013-03-20 15:00:00,27.8,10.2,30.19,NW,310,20.0,24.0,47,0.00,,,0.00,204,Wunderground v.1.15,2013-03-20 20:00:00,
2013-03-20 15:05:00,27.6,9.5,30.19,NW,315,24.0,24.0,46,0.00,,,0.00,747,Wunderground v.1.15,2013-03-20 20:05:00,
2013-03-20 15:10:00,28.1,10.9,30.19,NW,317,24.0,24.0,48,0.00,,,0.00,744,Wunderground v.1.15,2013-03-20 20:10:00,
2013-03-20 15:15:00,28.3,10.1,30.19,WNW,298,20.0,24.0,46,0.00,,,0.00,744,Wunderground v.1.15,2013-03-20 20:15:00,
2013-03-20 15:20:00,28.0,10.8,30.19,WNW,290,21.0,21.0,48,0.00,,,0.00,745,Wunderground v.1.15,2013-03-20 20:20:00,
2013-03-20 15:25:00,28.1,10.4,30.19,WNW,299,21.0,22.0,47,0.00,,,0.00,710,Wunderground v.1.15,2013-03-20 20:25:00,
2013-03-20 15:35:00,28.6,11.8,30.18,WNW,299,21.0,26.0,49,0.00,,,0.00,742,Wunderground v.1.15,2013-03-20 20:35:00,
2013-03-20 15:40:00,28.5,11.3,30.19,WNW,298,22.0,22.0,48,0.00,,,0.00,689,Wunderground v.1.15,2013-03-20 20:40:00,
2013-03-20 15:45:00,28.4,11.2,30.18,NW,306,22.0,32.0,48,0.00,,,0.00,656,Wunderground v.1.15,2013-03-20 20:45:00,
2013-03-20 15:50:00,28.4,11.2,30.18,NW,318,21.0,21.0,48,0.00,,,0.00,638,Wunderground v.1.15,2013-03-20 20:50:00,
2013-03-20 15:55:00,28.6,10.9,30.18,NW,309,21.0,29.0,47,0.00,,,0.00,606,Wunderground v.1.15,2013-03-20 20:55:00,
2013-03-20 16:05:00,28.0,10.8,30.18,WNW,301,23.0,23.0,48,0.00,,,0.00,613,Wunderground v.1.15,2013-03-20 21:05:00,
2013-03-20 16:10:00,28.3,11.1,30.18,NW,304,21.0,21.0,48,0.00,,,0.00,137,Wunderground v.1.15,2013-03-20 21:10:00,
2013-03-20 16:15:00,28.5,10.8,30.18,NW,305,21.0,21.0,47,0.00,,,0.00,619,Wunderground v.1.15,2013-03-20 21:15:00,
2013-03-20 16:20:00,28.9,11.6,30.18,WNW,291,20.0,20.0,48,0.00,,,0.00,575,Wunderground v.1.15,2013-03-20 21:20:00,
2013-03-20 16:25:00,28.3,11.1,30.18,NW,306,19.0,21.0,48,0.00,,,0.00,195,Wunderground v.1.15,2013-03-20 21:25:00,
2013-03-20 16:30:00,28.1,10.4,30.18,WNW,288,19.0,22.0,47,0.00,,,0.00,591,Wunderground v.1.15,2013-03-20 21:30:00,
2013-03-20 16:40:00,28.0,10.8,30.18,WNW,294,20.0,20.0,48,0.00,,,0.00,499,Wunderground v.1.15,2013-03-20 21:40:00,
2013-03-20 16:45:00,27.7,11.0,30.18,NW,305,20.0,20.0,49,0.00,,,0.00,561,Wunderground v.1.15,2013-03-20 21:45:00,
2013-03-20 16:50:00,28.1,12.3,30.18,WNW,296,20.0,21.0,51,0.00,,,0.00,496,Wunderground v.1.15,2013-03-20 21:50:00,
2013-03-20 16:55:00,28.3,11.6,30.18,WNW,296,19.0,21.0,49,0.00,,,0.00,471,Wunderground v.1.15,2013-03-20 21:55:00,
2013-03-20 17:00:00,27.8,11.5,30.18,WNW,294,19.0,19.0,50,0.00,,,0.00,213,Wunderground v.1.15,2013-03-20 22:00:00,
2013-03-20 17:10:00,27.4,11.2,30.18,NW,313,20.0,20.0,50,0.00,,,0.00,107,Wunderground v.1.15,2013-03-20 22:10:00,
2013-03-20 17:15:00,27.8,12.9,30.18,NW,312,21.0,21.0,53,0.00,,,0.00,306,Wunderground v.1.15,2013-03-20 22:15:00,
2013-03-20 17:25:00,27.3,12.0,30.18,WNW,299,19.0,20.0,52,0.00,,,0.00,88,Wunderground v.1.15,2013-03-20 22:25:00,
2013-03-20 17:30:00,27.2,12.7,30.18,WNW,294,20.0,20.0,54,0.00,,,0.00,88,Wunderground v.1.15,2013-03-20 22:30:00,
2013-03-20 17:35:00,27.1,12.2,30.18,NW,309,20.0,20.0,53,0.00,,,0.00,276,Wunderground v.1.15,2013-03-20 22:35:00,
2013-03-20 17:40:00,27.4,12.1,30.18,WNW,295,20.0,26.0,52,0.00,,,0.00,142,Wunderground v.1.15,2013-03-20 22:40:00,
2013-03-20 17:45:00,27.3,12.4,30.18,NW,314,21.0,26.0,53,0.00,,,0.00,336,Wunderground v.1.15,2013-03-20 22:45:00,
2013-03-20 17:50:00,27.6,11.4,30.18,WNW,296,20.0,27.0,50,0.00,,,0.00,258,Wunderground v.1.15,2013-03-20 22:50:00,
2013-03-20 18:00:00,27.6,11.4,30.17,NW,309,20.0,20.0,50,0.00,,,0.00,83,Wunderground v.1.15,2013-03-20 23:00:00,
2013-03-20 18:05:00,27.1,11.8,30.18,WNW,298,19.0,20.0,52,0.00,,,0.00,47,Wunderground v.1.15,2013-03-20 23:05:00,
2013-03-20 18:10:00,26.9,11.6,30.17,WNW,298,20.0,20.0,52,0.00,,,0.00,155,Wunderground v.1.15,2013-03-20 23:10:00,
2013-03-20 18:20:00,27.3,12.0,30.18,WNW,302,19.0,21.0,52,0.00,,,0.00,123,Wunderground v.1.15,2013-03-20 23:20:00,
2013-03-20 18:25:00,27.2,11.9,30.17,WNW,300,19.0,21.0,52,0.00,,,0.00,104,Wunderground v.1.15,2013-03-20 23:25:00,
2013-03-20 18:30:00,27.2,11.4,30.17,NW,304,19.0,19.0,51,0.00,,,0.00,76,Wunderground v.1.15,2013-03-20 23:30:00,
2013-03-20 18:35:00,27.1,10.9,30.17,WNW,297,20.0,23.0,50,0.00,,,0.00,67,Wunderground v.1.15,2013-03-20 23:35:00,
2013-03-20 18:40:00,26.9,11.2,30.17,WNW,298,21.0,21.0,51,0.00,,,0.00,49,Wunderground v.1.15,2013-03-20 23:40:00,
2013-03-20 18:50:00,26.7,12.7,30.17,NW,307,18.0,18.0,55,0.00,,,0.00,30,Wunderground v.1.15,2013-03-20 23:50:00,
2013-03-20 18:55:00,26.6,12.6,30.17,NW,311,18.0,18.0,55,0.00,,,0.00,19,Wunderground v.1.15,2013-03-20 23:55:00,
2013-03-20 19:00:00,26.6,12.2,30.18,WNW,299,18.0,18.0,54,0.00,,,0.00,16,Wunderground v.1.15,2013-03-21 00:00:00,
2013-03-20 19:05:00,26.4,12.0,30.17,NW,311,18.0,22.0,54,0.00,,,0.00,12,Wunderground v.1.15,2013-03-21 00:05:00,
2013-03-20 19:10:00,26.2,12.6,30.17,NW,309,18.0,18.0,56,0.00,,,0.00,7,Wunderground v.1.15,2013-03-21 00:10:00,
2013-03-20 19:15:00,26.0,12.4,30.17,NW,309,17.0,18.0,56,0.00,,,0.00,5,Wunderground v.1.15,2013-03-21 00:15:00,
2013-03-20 19:25:00,25.6,12.9,30.17,NW,313,17.0,20.0,58,0.00,,,0.00,0,Wunderground v.1.15,2013-03-21 00:25:00,
2013-03-20 19:30:00,25.4,13.1,30.17,NW,309,16.0,16.0,59,0.00,,,0.00,0,Wunderground v.1.15,2013-03-21 00:30:00,
2013-03-20 19:35:00,25.3,13.0,30.17,NW,305,15.0,20.0,59,0.00,,,0.00,0,Wunderground v.1.15,2013-03-21 00:35:00,
2013-03-20 19:40:00,25.3,13.0,30.17,NW,309,15.0,19.0,59,0.00,,,0.00,0,Wunderground v.1.15,2013-03-21 00:40:00,
2013-03-20 19:45:00,25.3,13.3,30.17,NW,306,16.0,19.0,60,0.00,,,0.00,0,Wunderground v.1.15,2013-03-21 00:45:00,
2013-03-20 19:55:00,25.0,13.8,30.17,NW,314,14.0,15.0,62,0.00,,,0.00,0,Wunderground v.1.15,2013-03-21 00:55:00,
2013-03-20 20:00:00,24.8,13.6,30.17,NW,313,13.0,15.0,62,0.00,,,0.00,0,Wunderground v.1.15,2013-03-21 01:00:00,
2013-03-20 20:05:00,24.8,13.2,30.17,NW,306,14.0,15.0,61,0.00,,,0.00,0,Wunderground v.1.15,2013-03-21 01:05:00,
2013-03-20 20:10:00,24.8,13.6,30.17,NW,312,15.0,15.0,62,0.00,,,0.00,0,Wunderground v.1.15,2013-03-21 01:10:00,
2013-03-20 20:15:00,24.6,13.8,30.17,NW,309,13.0,15.0,63,0.00,,,0.00,0,Wunderground v.1.15,2013-03-21 01:15:00,
2013-03-20 20:20:00,24.4,14.3,30.16,NW,313,12.0,12.0,65,0.00,,,0.00,0,Wunderground v.1.15,2013-03-21 01:20:00,
2013-03-20 20:30:00,24.0,14.3,30.16,NW,313,11.0,12.0,66,0.00,,,0.00,0,Wunderground v.1.15,2013-03-21 01:30:00,
2013-03-20 20:35:00,23.9,13.8,30.16,NW,313,12.0,12.0,65,0.00,,,0.00,0,Wunderground v.1.15,2013-03-21 01:35:00,
2013-03-20 20:40:00,23.9,14.2,30.16,NW,312,14.0,14.0,66,0.00,,,0.00,0,Wunderground v.1.15,2013-03-21 01:40:00,
2013-03-20 20:45:00,23.8,13.7,30.16,NW,319,15.0,15.0,65,0.00,,,0.00,0,Wunderground v.1.15,2013-03-21 01:45:00,
2013-03-20 20:50:00,23.7,14.0,30.16,NW,318,14.0,16.0,66,0.00,,,0.00,0,Wunderground v.1.15,2013-03-21 01:50:00,
2013-03-20 21:00:00,23.5,14.1,30.16,NW,313,14.0,15.0,67,0.00,,,0.00,0,Wunderground v.1.15,2013-03-21 02:00:00,
2013-03-20 21:05:00,23.4,14.0,30.16,NW,313,14.0,15.0,67,0.00,,,0.00,0,Wunderground v.1.15,2013-03-21 02:05:00,
2013-03-20 21:10:00,23.3,14.0,30.17,NW,318,14.0,14.0,67,0.00,,,0.00,0,Wunderground v.1.15,2013-03-21 02:10:00,
2013-03-20 21:15:00,23.3,14.3,30.17,NW,315,14.0,14.0,68,0.00,,,0.00,0,Wunderground v.1.15,2013-03-21 02:15:00,
2013-03-20 21:20:00,23.1,14.1,30.17,NW,317,13.0,13.0,68,0.00,,,0.00,0,Wunderground v.1.15,2013-03-21 02:20:00,
2013-03-20 21:25:00,23.0,14.0,30.17,NW,314,12.0,13.0,68,0.00,,,0.00,0,Wunderground v.1.15,2013-03-21 02:25:00,
2013-03-20 21:35:00,22.9,14.2,30.16,NW,317,13.0,13.0,69,0.00,,,0.00,0,Wunderground v.1.15,2013-03-21 02:35:00,
2013-03-20 21:40:00,22.7,14.1,30.16,NW,315,12.0,12.0,69,0.00,,,0.00,0,Wunderground v.1.15,2013-03-21 02:40:00,
2013-03-20 21:45:00,22.6,14.0,30.16,NW,312,13.0,13.0,69,0.00,,,0.00,0,Wunderground v.1.15,2013-03-21 02:45:00,
2013-03-20 21:50:00,22.6,14.0,30.16,NW,311,13.0,13.0,69,0.00,,,0.00,0,Wunderground v.1.15,2013-03-21 02:50:00,
2013-03-20 21:55:00,22.5,14.2,30.16,NW,313,12.0,14.0,70,0.00,,,0.00,0,Wunderground v.1.15,2013-03-21 02:55:00,
2013-03-20 22:05:00,22.4,14.1,30.16,NW,314,12.0,14.0,70,0.00,,,0.00,0,Wunderground v.1.15,2013-03-21 03:05:00,
2013-03-20 22:10:00,22.4,14.1,30.16,NW,316,13.0,13.0,70,0.00,,,0.00,0,Wunderground v.1.15,2013-03-21 03:10:00,
2013-03-20 22:20:00,22.2,14.2,30.16,NW,311,12.0,12.0,71,0.00,,,0.00,0,Wunderground v.1.15,2013-03-21 03:20:00,
2013-03-20 22:25:00,22.1,14.1,30.16,NW,309,11.0,12.0,71,0.00,,,0.00,0,Wunderground v.1.15,2013-03-21 03:25:00,
2013-03-20 22:30:00,22.0,14.0,30.16,NW,306,11.0,11.0,71,0.00,,,0.00,0,Wunderground v.1.15,2013-03-21 03:30:00,
2013-03-20 22:35:00,21.9,14.3,30.16,NW,311,11.0,11.0,72,0.00,,,0.00,0,Wunderground v.1.15,2013-03-21 03:35:00,
2013-03-20 22:45:00,21.7,14.1,30.16,NW,312,11.0,13.0,72,0.00,,,0.00,0,Wunderground v.1.15,2013-03-21 03:45:00,
2013-03-20 22:50:00,21.6,14.0,30.16,NW,311,11.0,11.0,72,0.00,,,0.00,0,Wunderground v.1.15,2013-03-21 03:50:00,
2013-03-20 22:55:00,21.6,14.3,30.16,NW,311,10.0,11.0,73,0.00,,,0.00,0,Wunderground v.1.15,2013-03-21 03:55:00,
2013-03-20 23:05:00,21.3,14.0,30.16,NW,309,9.0,10.0,73,0.00,,,0.00,0,Wunderground v.1.15,2013-03-21 04:05:00,
2013-03-20 23:10:00,21.1,14.1,30.16,NW,310,8.0,10.0,74,0.00,,,0.00,0,Wunderground v.1.15,2013-03-21 04:10:00,
2013-03-20 23:15:00,20.9,13.9,30.16,NW,310,8.0,10.0,74,0.00,,,0.00,0,Wunderground v.1.15,2013-03-21 04:15:00,
2013-03-20 23:20:00,20.7,14.0,30.16,NW,310,8.0,8.0,75,0.00,,,0.00,0,Wunderground v.1.15,2013-03-21 04:20:00,
2013-03-20 23:25:00,20.6,14.2,30.16,NW,310,7.0,8.0,76,0.00,,,0.00,0,Wunderground v.1.15,2013-03-21 04:25:00,
2013-03-20 23:30:00,20.4,14.0,30.16,NW,310,6.0,7.0,76,0.00,,,0.00,0,Wunderground v.1.15,2013-03-21 04:30:00,
2013-03-20 23:35:00,20.3,14.2,30.16,NW,310,7.0,9.0,77,0.00,,,0.00,0,Wunderground v.1.15,2013-03-21 04:35:00,
2013-03-20 23:40:00,20.3,14.2,30.15,NW,309,7.0,7.0,77,0.00,,,0.00,0,Wunderground v.1.15,2013-03-21 04:40:00,
2013-03-20 23:45:00,20.2,14.1,30.15,NW,309,8.0,8.0,77,0.00,,,0.00,0,Wunderground v.1.15,2013-03-21 04:45:00,
2013-03-20 23:50:00,20.1,14.0,30.15,NW,309,8.0,8.0,77,0.00,,,0.00,0,Wunderground v.1.15,2013-03-21 04:50:00,
2013-03-20 23:55:00,20.0,14.2,30.15,NW,309,7.0,8.0,78,0.00,,,0.00,0,Wunderground v.1.15,2013-03-21 04:55:00,